CheckWX is a tool to help pilots better visualize weather data.  It is not intended as a substitute for an official pre-flight weather briefing.

13:10:44 UTC

KHYA TAF
Barnstable Municipal-Boardman / Polando Field Airport
Hyannis, Massachusetts, USA
KHYA 181306Z 1813/1912 27004KT 3SM BR OVC008 FM181400 28004KT P6SM OVC100 FM190000 20008KT P6SM OVC040 FM190200 21008KT P6SM OVC020 FM190300 21007KT P6SM OVC008

Aug-18@
13:00 UTC

Aug-18 @ 13:00 UTC

Aug-18@
14:00 UTC

Aug-18 @ 14:00 UTC

KHYA 181306Z 1813/1912 27004KT 3SM BR OVC008
Wind
  • 270° at 4 KTS
Conditions
Mist
Cloud Levels
  • Overcast at 800' AGL

Aug-18@
14:00 UTC

Aug-18 @ 14:00 UTC

Aug-19@
00:00 UTC

Aug-19 @ 00:00 UTC

FM181400 28004KT P6SM OVC100

From

From Standard forecast or significant change

Wind
  • 280° at 4 KTS
Cloud Levels
  • Overcast at 10,000' AGL

Aug-19@
00:00 UTC

Aug-19 @ 00:00 UTC

Aug-19@
02:00 UTC

Aug-19 @ 02:00 UTC

FM190000 20008KT P6SM OVC040

From

From Standard forecast or significant change

Wind
  • 200° at 8 KTS
Cloud Levels
  • Overcast at 4,000' AGL

Aug-19@
02:00 UTC

Aug-19 @ 02:00 UTC

Aug-19@
03:00 UTC

Aug-19 @ 03:00 UTC

FM190200 21008KT P6SM OVC020

From

From Standard forecast or significant change

Wind
  • 210° at 8 KTS
Cloud Levels
  • Overcast at 2,000' AGL

Aug-19@
03:00 UTC

Aug-19 @ 03:00 UTC

Aug-19@
12:00 UTC

Aug-19 @ 12:00 UTC

FM190300 21007KT P6SM OVC008

From

From Standard forecast or significant change

Wind
  • 210° at 7 KTS
Cloud Levels
  • Overcast at 800' AGL